Time;durP1;ratioP1;P1;durP2;ratioP2;P2;SDS_P1;SDS_P2;PMS_P1;PMS_P2;Temp;Humidity;BMP_temperature;BMP_pressure;BME280_temperature;BME280_humidity;BME280_pressure;Samples;Min_cycle;Max_cycle;Signal;HPM_P1;HPM_P2
2021/05/12 00:00:19;;;;;;;4.67;4.33;;;19.40;78.60;;;;;;5079443;28;20489;-70
2021/05/12 00:02:47;;;;;;;4.30;4.10;;;19.40;78.80;;;;;;5091259;28;20418;-71
2021/05/12 00:05:15;;;;;;;5.17;4.87;;;19.30;79.60;;;;;;5076623;28;20469;-70
2021/05/12 00:07:43;;;;;;;4.43;4.13;;;19.30;80.10;;;;;;5090942;28;20467;-70
2021/05/12 00:10:11;;;;;;;4.63;4.33;;;19.30;80.30;;;;;;5078842;28;20445;-69
2021/05/12 00:12:40;;;;;;;4.50;4.20;;;19.20;80.40;;;;;;5077749;28;20589;-69
2021/05/12 00:15:15;;;;;;;4.93;4.53;;;19.20;81.00;;;;;;5071653;28;20610;-70
2021/05/12 00:17:44;;;;;;;4.43;4.23;;;19.20;81.60;;;;;;5063608;28;20444;-70
2021/05/12 00:20:13;;;;;;;4.73;4.43;;;19.10;82.40;;;;;;5060834;28;20447;-70
2021/05/12 00:22:49;;;;;;;5.50;5.10;;;19.10;83.00;;;;;;5071652;28;20456;-70
2021/05/12 00:25:16;;;;;;;6.50;4.00;;;19.00;84.00;;;;;;5071527;28;20473;-69
2021/05/12 00:27:44;;;;;;;4.70;4.40;;;18.80;85.20;;;;;;5071748;28;20419;-71
2021/05/12 00:30:14;;;;;;;4.07;3.90;;;18.70;86.30;;;;;;5068460;28;20419;-69
2021/05/12 00:32:42;;;;;;;4.23;4.03;;;18.70;87.00;;;;;;5071574;28;20425;-71
2021/05/12 00:35:10;;;;;;;4.23;4.03;;;18.60;87.50;;;;;;5070549;28;20431;-70
2021/05/12 00:37:37;;;;;;;3.80;3.50;;;18.60;88.30;;;;;;5066946;28;20447;-71
2021/05/12 00:40:07;;;;;;;4.17;3.97;;;18.60;88.80;;;;;;5067020;28;20444;-71
2021/05/12 00:42:34;;;;;;;4.50;4.20;;;18.50;89.10;;;;;;5064832;28;20545;-70
2021/05/12 00:45:02;;;;;;;4.40;4.03;;;18.40;90.00;;;;;;5081465;28;20472;-69
2021/05/12 00:47:31;;;;;;;3.90;3.60;;;18.40;90.40;;;;;;5066278;28;20479;-70
2021/05/12 00:49:59;;;;;;;4.10;3.80;;;18.30;90.50;;;;;;5084944;28;20527;-70
2021/05/12 00:52:27;;;;;;;3.10;3.00;;;18.30;90.60;;;;;;5070280;28;20423;-71
2021/05/12 00:54:54;;;;;;;3.73;3.53;;;18.30;90.80;;;;;;5061374;28;20427;-69
2021/05/12 00:57:23;;;;;;;3.87;3.67;;;18.30;91.00;;;;;;5067312;28;20456;-70
2021/05/12 00:59:54;;;;;;;4.67;4.27;;;18.10;91.40;;;;;;5062829;28;20444;-69
2021/05/12 01:02:22;;;;;;;3.50;3.30;;;18.00;91.80;;;;;;5072393;28;20418;-71
2021/05/12 01:04:49;;;;;;;4.37;4.17;;;18.00;91.90;;;;;;5068703;28;20458;-71
2021/05/12 01:07:17;;;;;;;10.13;4.00;;;18.00;92.10;;;;;;5071210;28;20414;-71
2021/05/12 01:09:44;;;;;;;4.20;4.00;;;17.80;92.40;;;;;;5070157;28;20445;-70
2021/05/12 01:12:11;;;;;;;5.20;4.90;;;17.80;92.60;;;;;;5070277;28;20490;-71
2021/05/12 01:14:38;;;;;;;6.63;4.90;;;17.80;92.50;;;;;;5074884;28;20449;-70
2021/05/12 01:17:05;;;;;;;5.13;4.83;;;17.70;92.60;;;;;;5066342;28;20455;-70
2021/05/12 01:19:34;;;;;;;5.20;4.80;;;17.70;92.60;;;;;;5070094;28;20448;-70
2021/05/12 01:22:02;;;;;;;4.57;4.20;;;17.70;92.70;;;;;;5067256;28;20426;-70
2021/05/12 01:24:29;;;;;;;4.20;3.97;;;17.70;92.70;;;;;;5077598;28;20501;-70
2021/05/12 01:26:56;;;;;;;4.17;3.77;;;17.70;93.00;;;;;;5077501;28;20443;-71
2021/05/12 01:29:24;;;;;;;4.20;3.90;;;17.70;92.80;;;;;;5078046;28;20489;-71
2021/05/12 01:31:52;;;;;;;3.80;3.50;;;17.60;93.10;;;;;;5075734;28;20477;-70
2021/05/12 01:34:20;;;;;;;4.23;3.87;;;17.70;92.70;;;;;;5075342;28;20455;-71
2021/05/12 01:36:48;;;;;;;3.10;2.90;;;17.60;92.90;;;;;;5072998;28;20451;-70
2021/05/12 01:39:16;;;;;;;4.47;4.17;;;17.60;93.00;;;;;;5062223;28;20451;-70
2021/05/12 01:41:44;;;;;;;4.20;3.87;;;17.50;93.10;;;;;;5065436;28;20440;-70
2021/05/12 01:44:12;;;;;;;3.83;3.53;;;17.50;93.20;;;;;;5062086;28;20413;-69
2021/05/12 01:46:42;;;;;;;3.77;3.57;;;17.40;93.40;;;;;;5065917;28;20846;-70
2021/05/12 01:49:10;;;;;;;3.60;3.40;;;17.50;93.40;;;;;;5062273;28;20465;-69
2021/05/12 01:51:39;;;;;;;4.27;3.97;;;17.40;93.50;;;;;;5065882;28;20411;-70
2021/05/12 01:54:08;;;;;;;3.00;2.80;;;17.40;93.60;;;;;;5071372;28;20450;-70
2021/05/12 01:56:37;;;;;;;4.63;3.80;;;17.30;93.80;;;;;;5078364;28;20517;-71
2021/05/12 01:59:05;;;;;;;3.10;2.87;;;17.30;94.00;;;;;;5076628;28;20502;-71
2021/05/12 02:01:33;;;;;;;2.80;2.60;;;17.20;94.20;;;;;;5079844;28;20450;-71
2021/05/12 02:04:05;;;;;;;3.30;3.00;;;17.10;94.30;;;;;;5079049;28;20550;-69
2021/05/12 02:06:33;;;;;;;2.90;2.80;;;17.10;94.30;;;;;;5078493;28;20487;-69
2021/05/12 02:09:01;;;;;;;3.13;2.93;;;17.10;94.40;;;;;;5090773;28;20485;-70
2021/05/12 02:11:28;;;;;;;3.97;3.50;;;17.10;94.50;;;;;;5089118;28;21039;-70
2021/05/12 02:13:55;;;;;;;3.40;3.20;;;17.10;94.60;;;;;;5078907;28;20793;-70
2021/05/12 02:16:22;;;;;;;3.63;3.20;;;17.10;94.70;;;;;;5078768;28;20442;-70
2021/05/12 02:18:51;;;;;;;3.57;3.27;;;17.10;94.60;;;;;;5087044;28;20450;-69
2021/05/12 02:21:18;;;;;;;4.73;4.33;;;17.00;94.70;;;;;;5085123;28;20417;-68
2021/05/12 02:23:46;;;;;;;3.67;3.13;;;17.00;94.70;;;;;;5093349;28;20447;-70
2021/05/12 02:26:13;;;;;;;3.43;3.20;;;17.00;94.80;;;;;;5080428;28;20507;-69
2021/05/12 02:28:40;;;;;;;3.73;3.50;;;16.90;95.00;;;;;;5077593;28;20460;-71
2021/05/12 02:31:07;;;;;;;4.40;4.00;;;16.90;95.10;;;;;;5079051;28;20436;-69
2021/05/12 02:33:34;;;;;;;3.20;2.90;;;16.90;95.30;;;;;;5068338;28;20444;-70
2021/05/12 02:36:01;;;;;;;2.73;2.50;;;16.90;95.30;;;;;;5072619;28;20505;-69
2021/05/12 02:38:30;;;;;;;8.13;2.87;;;16.80;95.40;;;;;;5076111;28;20507;-69
2021/05/12 02:40:57;;;;;;;4.10;3.00;;;16.70;95.60;;;;;;5066049;28;20447;-69
2021/05/12 02:43:24;;;;;;;5.77;3.17;;;16.70;95.80;;;;;;5070481;28;20464;-72
2021/05/12 02:45:51;;;;;;;2.93;2.73;;;16.70;95.80;;;;;;5065947;28;20480;-69
2021/05/12 02:48:18;;;;;;;3.10;3.00;;;16.80;95.70;;;;;;5068661;28;20539;-70
2021/05/12 02:50:45;;;;;;;3.40;3.10;;;17.00;95.50;;;;;;5068073;28;20419;-69
2021/05/12 02:53:12;;;;;;;3.20;3.00;;;17.00;95.30;;;;;;5066406;28;20470;-70
2021/05/12 02:55:40;;;;;;;2.77;2.57;;;16.90;95.50;;;;;;5061521;28;20495;-69
2021/05/12 02:58:08;;;;;;;3.40;3.20;;;16.80;95.70;;;;;;5064737;28;20448;-69
2021/05/12 03:00:38;;;;;;;3.03;2.83;;;16.80;95.70;;;;;;5070393;28;20432;-70
2021/05/12 03:03:06;;;;;;;3.90;3.47;;;16.50;96.20;;;;;;5063869;28;20477;-69
2021/05/12 03:05:33;;;;;;;3.40;3.20;;;16.50;96.80;;;;;;5070412;28;20494;-70
2021/05/12 03:08:01;;;;;;;3.77;3.30;;;16.40;97.10;;;;;;5077380;28;20625;-69
2021/05/12 03:10:33;;;;;;;3.23;2.93;;;16.40;97.00;;;;;;5078490;28;20450;-70
2021/05/12 03:13:04;;;;;;;2.47;2.37;;;16.30;97.30;;;;;;5078232;28;20476;-69
2021/05/12 03:15:31;;;;;;;3.50;3.30;;;16.30;97.40;;;;;;5078048;28;20448;-69
2021/05/12 03:17:59;;;;;;;3.53;3.23;;;16.50;97.10;;;;;;5077987;28;20512;-70
2021/05/12 03:20:28;;;;;;;2.90;2.70;;;16.50;97.10;;;;;;5077896;28;20468;-70
2021/05/12 03:22:56;;;;;;;3.20;2.90;;;16.60;97.10;;;;;;5062145;28;20444;-69
2021/05/12 03:25:24;;;;;;;3.47;3.17;;;16.70;97.00;;;;;;5077029;28;20487;-69
2021/05/12 03:27:52;;;;;;;3.60;3.30;;;16.90;96.80;;;;;;5077159;28;20419;-69
2021/05/12 03:30:25;;;;;;;4.63;4.23;;;16.80;97.20;;;;;;5077931;28;20451;-70
2021/05/12 03:32:53;;;;;;;7.00;3.37;;;16.80;97.90;;;;;;5066039;28;20425;-69
2021/05/12 03:35:20;;;;;;;3.60;3.30;;;16.70;98.30;;;;;;5060874;28;20445;-70
2021/05/12 03:37:48;;;;;;;6.20;4.23;;;16.80;98.70;;;;;;5062178;28;20501;-71
2021/05/12 03:40:17;;;;;;;6.03;4.00;;;16.80;99.30;;;;;;5062747;28;20437;-71
2021/05/12 03:42:44;;;;;;;5.63;3.90;;;16.70;99.90;;;;;;5069857;28;20836;-71
2021/05/12 03:45:12;;;;;;;5.43;4.80;;;16.80;99.90;;;;;;5067288;28;20445;-69
2021/05/12 03:47:46;;;;;;;5.33;4.83;;;16.80;99.90;;;;;;5060886;28;20662;-69
2021/05/12 03:50:13;;;;;;;4.73;4.23;;;16.90;99.90;;;;;;5063839;28;20445;-70
2021/05/12 03:52:40;;;;;;;5.23;4.70;;;16.80;99.90;;;;;;5073306;28;20656;-69
2021/05/12 03:55:09;;;;;;;5.40;4.90;;;16.80;99.90;;;;;;5083977;28;20492;-70
2021/05/12 03:57:36;;;;;;;7.60;6.90;;;16.80;99.90;;;;;;5080955;28;20425;-70
2021/05/12 04:00:04;;;;;;;8.93;6.33;;;17.00;99.90;;;;;;5072175;28;20416;-70
2021/05/12 04:02:32;;;;;;;5.90;5.40;;;17.00;99.90;;;;;;5065671;28;20479;-70
2021/05/12 04:04:59;;;;;;;6.47;5.87;;;17.20;99.90;;;;;;5076333;28;20891;-70
2021/05/12 04:07:27;;;;;;;6.17;5.63;;;17.20;99.90;;;;;;5077332;28;20822;-70
2021/05/12 04:09:55;;;;;;;6.47;5.83;;;17.30;99.90;;;;;;5064231;28;20502;-70
2021/05/12 04:12:22;;;;;;;7.57;6.83;;;17.40;99.90;;;;;;5090048;28;20508;-70
2021/05/12 04:14:50;;;;;;;6.50;6.00;;;17.40;99.90;;;;;;5076514;28;20458;-71
2021/05/12 04:17:17;;;;;;;7.13;6.53;;;17.50;99.90;;;;;;5087899;28;20488;-70
2021/05/12 04:19:44;;;;;;;7.37;6.67;;;17.50;99.90;;;;;;5078199;28;20446;-69
2021/05/12 04:22:11;;;;;;;8.20;7.43;;;17.50;99.90;;;;;;5093655;28;20445;-70
2021/05/12 04:24:38;;;;;;;8.67;7.77;;;17.50;99.90;;;;;;5090301;28;20472;-70
2021/05/12 04:27:05;;;;;;;8.60;7.20;;;17.50;99.90;;;;;;5082815;28;20478;-70
2021/05/12 04:29:32;;;;;;;7.80;7.20;;;17.60;99.90;;;;;;5080800;28;20425;-71
2021/05/12 04:32:00;;;;;;;6.87;6.30;;;17.60;99.90;;;;;;5085597;28;20447;-70
2021/05/12 04:34:27;;;;;;;8.57;7.67;;;17.60;99.90;;;;;;5075581;28;21036;-70
2021/05/12 04:36:54;;;;;;;8.40;7.60;;;17.70;99.90;;;;;;5074343;28;20451;-70
2021/05/12 04:39:22;;;;;;;8.90;8.10;;;17.70;99.90;;;;;;5087895;28;20437;-70
2021/05/12 04:41:49;;;;;;;7.40;6.70;;;17.70;99.90;;;;;;5081296;28;20421;-71
2021/05/12 04:44:17;;;;;;;7.27;6.67;;;17.80;99.90;;;;;;5086672;28;20608;-70
2021/05/12 04:46:45;;;;;;;7.97;7.17;;;18.00;99.90;;;;;;5075092;28;20483;-70
2021/05/12 04:49:12;;;;;;;9.00;8.30;;;18.00;99.90;;;;;;5076389;28;20445;-71
2021/05/12 04:51:40;;;;;;;8.23;7.43;;;18.10;99.90;;;;;;5076476;28;20444;-70
2021/05/12 04:54:07;;;;;;;9.00;8.10;;;18.20;99.90;;;;;;5068097;28;20614;-68
2021/05/12 04:56:35;;;;;;;7.90;7.20;;;18.30;99.90;;;;;;5083551;28;20656;-69
2021/05/12 04:59:02;;;;;;;8.10;7.37;;;18.30;99.90;;;;;;5075834;28;20427;-70
2021/05/12 05:01:30;;;;;;;8.63;7.83;;;18.40;99.90;;;;;;5075997;28;20741;-70
2021/05/12 05:04:01;;;;;;;7.80;7.00;;;18.50;99.90;;;;;;5076188;28;20479;-70
2021/05/12 05:06:28;;;;;;;8.23;7.53;;;18.50;99.90;;;;;;5071153;28;20480;-70
2021/05/12 05:08:55;;;;;;;8.50;6.70;;;18.60;99.90;;;;;;5083260;28;20414;-70
2021/05/12 05:11:23;;;;;;;9.30;8.60;;;18.80;99.90;;;;;;5074562;28;20423;-70
2021/05/12 05:13:50;;;;;;;10.60;7.10;;;18.80;99.90;;;;;;5079886;28;20785;-70
2021/05/12 05:16:17;;;;;;;7.13;6.47;;;18.80;99.90;;;;;;5066001;28;20445;-70
2021/05/12 05:18:45;;;;;;;8.33;7.63;;;18.80;99.90;;;;;;5078854;28;20436;-70
2021/05/12 05:21:14;;;;;;;8.67;7.80;;;18.90;99.90;;;;;;5071600;28;20470;-70
2021/05/12 05:23:42;;;;;;;8.70;7.87;;;19.00;99.90;;;;;;5068549;28;20758;-70
2021/05/12 05:26:09;;;;;;;7.27;6.67;;;19.10;99.90;;;;;;5069039;28;20485;-71
2021/05/12 05:28:36;;;;;;;10.00;6.70;;;19.40;99.90;;;;;;5069673;28;20445;-69
2021/05/12 05:31:03;;;;;;;8.53;6.63;;;19.50;99.90;;;;;;5074074;28;20464;-69
2021/05/12 05:33:30;;;;;;;7.30;6.70;;;19.60;99.90;;;;;;5059532;28;20487;-69
2021/05/12 05:35:57;;;;;;;7.10;6.43;;;19.70;99.90;;;;;;5059248;28;20412;-73
2021/05/12 05:38:24;;;;;;;10.03;7.20;;;19.80;99.90;;;;;;5062274;28;20731;-71
2021/05/12 05:40:51;;;;;;;6.80;6.10;;;19.80;99.90;;;;;;5059050;28;20633;-70
2021/05/12 05:43:18;;;;;;;7.43;6.73;;;20.10;99.90;;;;;;5085355;28;20969;-71
2021/05/12 05:45:45;;;;;;;7.27;5.47;;;20.40;99.30;;;;;;5060923;28;20492;-69
2021/05/12 05:48:12;;;;;;;8.27;7.47;;;20.40;99.00;;;;;;5064709;28;20471;-71
2021/05/12 05:50:41;;;;;;;6.60;6.10;;;20.40;99.10;;;;;;5073410;28;20476;-70
2021/05/12 05:53:08;;;;;;;9.50;6.73;;;20.50;99.10;;;;;;5065830;28;20443;-69
2021/05/12 05:55:35;;;;;;;7.70;6.90;;;20.70;98.90;;;;;;5065724;28;20473;-69
2021/05/12 05:58:02;;;;;;;7.90;7.10;;;20.90;98.40;;;;;;5062641;28;20425;-70
2021/05/12 06:00:29;;;;;;;7.07;6.47;;;21.10;98.00;;;;;;5063265;28;20796;-69
2021/05/12 06:02:56;;;;;;;7.50;6.80;;;21.40;97.30;;;;;;5067853;28;20418;-69
2021/05/12 06:05:24;;;;;;;7.13;6.43;;;21.80;96.70;;;;;;5078918;28;20438;-69
2021/05/12 06:07:51;;;;;;;6.23;5.73;;;22.50;95.50;;;;;;5063816;28;20484;-69
2021/05/12 06:10:19;;;;;;;6.80;6.23;;;22.60;95.10;;;;;;5069126;28;20489;-69
2021/05/12 06:12:46;;;;;;;7.37;6.67;;;22.80;94.50;;;;;;5080107;28;20442;-70
2021/05/12 06:15:18;;;;;;;6.50;6.00;;;23.10;93.80;;;;;;5086556;28;20640;-70
2021/05/12 06:17:51;;;;;;;6.60;6.10;;;23.70;92.70;;;;;;5070607;28;20472;-70
2021/05/12 06:20:18;;;;;;;7.07;6.57;;;24.40;91.60;;;;;;5071413;28;20548;-69
2021/05/12 06:22:45;;;;;;;7.50;7.00;;;25.10;90.50;;;;;;5076549;28;20747;-68
2021/05/12 06:25:13;;;;;;;9.30;7.57;;;26.30;86.00;;;;;;5071305;28;20436;-70
2021/05/12 06:27:41;;;;;;;7.53;6.93;;;26.60;84.00;;;;;;5071492;28;20441;-70
2021/05/12 06:30:09;;;;;;;8.73;8.10;;;26.80;84.20;;;;;;5067095;28;20433;-69
2021/05/12 06:32:36;;;;;;;8.73;8.13;;;26.90;83.20;;;;;;5065991;28;20468;-68
2021/05/12 06:35:04;;;;;;;7.83;7.43;;;27.50;81.00;;;;;;5067687;28;20483;-69
2021/05/12 06:37:31;;;;;;;8.20;7.70;;;27.90;78.40;;;;;;5057965;28;20469;-69
2021/05/12 06:39:58;;;;;;;8.07;7.57;;;28.00;77.10;;;;;;5073852;28;20780;-71
2021/05/12 06:42:26;;;;;;;9.13;8.50;;;28.40;75.80;;;;;;5074065;28;20755;-70
2021/05/12 06:44:53;;;;;;;9.07;8.57;;;29.40;72.90;;;;;;5077920;28;20415;-70
2021/05/12 06:47:20;;;;;;;9.00;8.57;;;30.40;68.80;;;;;;5087209;28;20487;-70
2021/05/12 06:49:48;;;;;;;9.37;8.87;;;31.50;63.60;;;;;;5083880;28;20471;-70
2021/05/12 06:52:16;;;;;;;9.53;9.03;;;32.10;59.40;;;;;;5083007;28;20514;-70
2021/05/12 06:54:43;;;;;;;10.07;9.57;;;32.80;56.60;;;;;;5084667;28;20442;-71
2021/05/12 06:57:10;;;;;;;10.23;9.73;;;33.80;53.90;;;;;;5071824;28;20452;-69
2021/05/12 06:59:37;;;;;;;10.07;9.47;;;35.00;51.40;;;;;;5082322;28;20446;-70
2021/05/12 07:02:07;;;;;;;9.43;9.07;;;35.30;48.90;;;;;;5085223;28;20789;-69
2021/05/12 07:04:34;;;;;;;10.13;9.63;;;35.10;49.00;;;;;;5082895;28;20464;-70
2021/05/12 07:07:02;;;;;;;10.30;9.80;;;34.90;48.70;;;;;;5081744;28;20485;-70
2021/05/12 07:09:29;;;;;;;10.13;9.67;;;35.00;48.40;;;;;;5085949;28;20447;-70
2021/05/12 07:11:56;;;;;;;11.13;10.53;;;35.30;47.20;;;;;;5086557;28;20779;-69
2021/05/12 07:14:23;;;;;;;10.70;10.10;;;35.70;47.00;;;;;;5082578;28;20789;-68
2021/05/12 07:16:52;;;;;;;11.13;10.33;;;36.30;45.40;;;;;;5084263;28;20472;-69
2021/05/12 07:19:20;;;;;;;10.47;9.97;;;36.40;45.10;;;;;;5075932;28;20777;-69
2021/05/12 07:21:48;;;;;;;10.47;9.80;;;36.40;44.70;;;;;;5072127;28;20516;-70
2021/05/12 07:24:19;;;;;;;10.40;9.80;;;35.30;47.20;;;;;;5075267;28;20442;-70
2021/05/12 07:26:49;;;;;;;11.00;10.40;;;34.50;47.00;;;;;;5092781;28;20503;-70
2021/05/12 07:29:17;;;;;;;9.73;9.33;;;34.70;46.60;;;;;;5079952;28;20439;-70
2021/05/12 07:31:46;;;;;;;9.73;9.33;;;34.90;46.40;;;;;;5082448;28;20441;-69
2021/05/12 07:34:14;;;;;;;11.03;10.40;;;35.20;46.30;;;;;;5078857;28;20432;-70
2021/05/12 07:36:41;;;;;;;8.40;7.97;;;35.20;46.00;;;;;;5063103;28;20506;-70
2021/05/12 07:39:08;;;;;;;9.57;9.07;;;35.20;45.90;;;;;;5094415;28;20451;-69
2021/05/12 07:41:36;;;;;;;10.20;9.70;;;34.70;46.50;;;;;;5079781;28;20448;-69
2021/05/12 07:44:04;;;;;;;10.47;9.97;;;34.60;46.40;;;;;;5064237;28;20640;-70
2021/05/12 07:46:31;;;;;;;10.50;9.90;;;35.10;45.60;;;;;;5063968;28;20505;-69
2021/05/12 07:48:58;;;;;;;9.57;9.07;;;35.60;44.80;;;;;;5066425;28;20452;-70
2021/05/12 07:51:25;;;;;;;10.20;9.70;;;35.80;44.70;;;;;;5061251;28;20449;-69
2021/05/12 07:53:53;;;;;;;10.10;9.60;;;35.40;45.30;;;;;;5077419;28;20617;-69
2021/05/12 07:56:21;;;;;;;9.73;9.23;;;33.90;47.60;;;;;;5080314;28;20828;-69
2021/05/12 07:58:48;;;;;;;10.50;9.90;;;31.80;51.60;;;;;;5081153;28;20657;-69
2021/05/12 08:03:46;;;;;;;10.20;9.50;;;33.50;48.40;;;;;;5072237;28;20758;-69
2021/05/12 08:06:14;;;;;;;10.00;9.50;;;32.80;49.10;;;;;;5065739;28;20513;-70
2021/05/12 08:08:41;;;;;;;10.27;9.57;;;33.00;49.30;;;;;;5077829;28;20446;-69
2021/05/12 08:11:08;;;;;;;10.13;9.60;;;32.30;50.60;;;;;;5085933;28;20436;-70
2021/05/12 08:13:36;;;;;;;10.67;10.13;;;31.00;53.60;;;;;;5079399;28;20481;-70
2021/05/12 08:16:03;;;;;;;10.30;9.67;;;32.00;51.20;;;;;;5087945;28;20443;-69
2021/05/12 08:18:31;;;;;;;10.97;10.27;;;31.50;51.60;;;;;;5074149;28;20438;-70
2021/05/12 08:20:58;;;;;;;10.03;9.53;;;29.90;54.70;;;;;;5090884;28;20443;-68
2021/05/12 08:23:25;;;;;;;11.03;10.33;;;29.50;55.60;;;;;;5087766;28;20873;-70
2021/05/12 08:38:46;;;;;;;11.20;10.50;;;31.80;51.20;;;;;;5124938;27;20553;-68
2021/05/12 08:41:14;;;;;;;11.03;10.50;;;32.70;49.50;;;;;;5112951;28;20438;-70
2021/05/12 08:43:42;;;;;;;10.87;10.37;;;32.70;49.40;;;;;;5111412;28;20488;-70
2021/05/12 08:46:10;;;;;;;11.60;10.93;;;31.30;51.70;;;;;;5111718;28;20452;-68
2021/05/12 08:48:38;;;;;;;11.43;10.73;;;28.90;55.90;;;;;;5111238;28;20445;-69
2021/05/12 08:51:08;;;;;;;11.23;10.63;;;28.50;57.20;;;;;;5112469;28;20858;-70
2021/05/12 08:53:36;;;;;;;12.23;11.53;;;30.50;53.50;;;;;;5112191;28;20444;-68
2021/05/12 08:56:04;;;;;;;10.50;10.00;;;32.40;49.90;;;;;;5111844;28;20441;-69
2021/05/12 08:58:32;;;;;;;11.23;10.63;;;34.30;46.70;;;;;;5111981;28;20762;-69
2021/05/12 09:01:00;;;;;;;10.70;10.10;;;34.20;46.10;;;;;;5110626;28;20639;-69
2021/05/12 09:03:28;;;;;;;11.13;10.53;;;33.60;47.50;;;;;;5112013;28;20442;-69
2021/05/12 09:05:58;;;;;;;12.43;11.63;;;33.30;47.80;;;;;;5111196;28;20452;-69
2021/05/12 09:08:28;;;;;;;13.40;12.67;;;33.70;49.00;;;;;;5100578;28;20554;-71
2021/05/12 09:10:56;;;;;;;12.37;11.67;;;33.60;47.90;;;;;;5112482;28;20445;-70
2021/05/12 09:13:33;;;;;;;12.20;11.50;;;32.90;48.60;;;;;;5111850;28;20811;-68
2021/05/12 09:16:16;;;;;;;11.87;11.27;;;33.50;47.40;;;;;;5111817;28;20446;-68
2021/05/12 09:18:43;;;;;;;11.80;10.90;;;34.50;45.30;;;;;;5101448;28;20551;-70
2021/05/12 09:21:12;;;;;;;11.77;11.07;;;30.60;52.10;;;;;;5111701;28;20444;-70
2021/05/12 09:23:41;;;;;;;11.07;10.47;;;30.60;52.00;;;;;;5102763;28;20448;-72
2021/05/12 09:26:15;;;;;;;12.60;11.80;;;30.50;52.60;;;;;;5112812;28;20506;-69
2021/05/12 09:28:43;;;;;;;11.37;10.67;;;30.70;52.60;;;;;;5075735;28;20456;-68
2021/05/12 09:31:18;;;;;;;11.63;11.03;;;30.10;53.80;;;;;;5088160;28;20637;-70
2021/05/12 09:33:50;;;;;;;11.37;10.70;;;29.10;55.90;;;;;;5092477;28;20741;-70
2021/05/12 09:36:28;;;;;;;9.90;9.30;;;28.80;57.70;;;;;;5089692;28;20450;-70
2021/05/12 09:38:56;;;;;;;11.20;10.50;;;27.90;59.00;;;;;;5080831;28;20450;-68
2021/05/12 09:41:36;;;;;;;11.90;11.20;;;26.90;61.30;;;;;;5077525;28;21292;-67
2021/05/12 09:44:07;;;;;;;10.80;10.20;;;27.00;62.20;;;;;;5074536;28;20506;-67
2021/05/12 09:46:36;;;;;;;11.83;11.10;;;27.00;62.20;;;;;;5107612;28;20689;-65
2021/05/12 09:49:12;;;;;;;11.20;10.50;;;26.60;63.50;;;;;;5076661;28;20466;-69
2021/05/12 09:51:44;;;;;;;11.60;10.83;;;26.50;65.10;;;;;;5075105;28;20441;-67
2021/05/12 09:54:20;;;;;;;9.97;9.43;;;26.60;66.00;;;;;;5077800;28;20512;-69
2021/05/12 09:56:55;;;;;;;12.50;11.60;;;26.90;64.80;;;;;;5076552;28;20495;-70
2021/05/12 09:59:24;;;;;;;10.20;9.60;;;26.60;65.00;;;;;;5074737;28;20503;-66
2021/05/12 10:02:08;;;;;;;10.10;9.50;;;26.30;67.00;;;;;;5077147;28;20419;-69
2021/05/12 10:04:44;;;;;;;11.60;10.90;;;25.90;67.60;;;;;;5077261;28;20409;-68
2021/05/12 10:07:22;;;;;;;10.80;10.10;;;25.80;67.80;;;;;;5076634;28;20486;-69
2021/05/12 10:09:51;;;;;;;11.43;10.60;;;25.90;68.50;;;;;;5075602;28;20413;-68
2021/05/12 10:12:26;;;;;;;10.43;9.83;;;26.00;69.60;;;;;;5072801;28;20483;-66
2021/05/12 10:14:58;;;;;;;9.70;9.10;;;25.90;69.00;;;;;;5076978;28;20485;-69
2021/05/12 10:17:27;;;;;;;10.10;9.40;;;25.30;71.10;;;;;;5070848;28;20442;-68
2021/05/12 10:19:56;;;;;;;12.33;11.53;;;25.00;73.80;;;;;;5077121;28;20442;-69
2021/05/12 10:22:26;;;;;;;10.70;9.80;;;24.50;75.80;;;;;;5072604;28;20415;-71
2021/05/12 10:24:53;;;;;;;10.13;9.47;;;24.30;79.00;;;;;;5102762;28;20608;-69
2021/05/12 10:27:28;;;;;;;10.27;9.43;;;24.40;80.10;;;;;;5070670;28;20753;-69
2021/05/12 10:29:58;;;;;;;9.77;9.13;;;24.20;82.00;;;;;;5070799;28;20429;-71
2021/05/12 10:32:32;;;;;;;9.03;8.43;;;24.00;84.60;;;;;;5074153;28;20411;-67
2021/05/12 10:35:13;;;;;;;9.93;9.23;;;23.80;86.40;;;;;;5077618;28;20477;-70
2021/05/12 10:37:46;;;;;;;9.40;8.80;;;23.40;89.60;;;;;;5068872;28;20496;-69
2021/05/12 10:40:24;;;;;;;10.80;10.00;;;23.50;89.70;;;;;;5077864;28;20473;-69
2021/05/12 10:43:00;;;;;;;9.30;8.70;;;23.70;89.80;;;;;;5069744;28;20769;-69
2021/05/12 10:45:36;;;;;;;9.20;8.50;;;24.20;90.00;;;;;;5068509;28;20424;-68
2021/05/12 10:48:05;;;;;;;9.77;9.10;;;24.40;87.80;;;;;;5070528;28;20519;-69
2021/05/12 10:50:47;;;;;;;8.53;7.93;;;23.90;88.60;;;;;;5076065;28;20534;-70
2021/05/12 10:53:21;;;;;;;10.37;9.57;;;23.80;89.00;;;;;;5076718;28;20430;-71
2021/05/12 10:55:57;;;;;;;9.40;8.60;;;23.70;89.00;;;;;;5101282;28;20448;-70
2021/05/12 10:58:27;;;;;;;8.17;7.57;;;24.10;89.00;;;;;;5106626;28;20477;-69
2021/05/12 11:01:00;;;;;;;10.67;9.67;;;24.20;89.80;;;;;;5072909;28;20691;-69
2021/05/12 11:03:47;;;;;;;10.33;9.60;;;24.00;88.90;;;;;;5071006;28;20629;-71
2021/05/12 11:06:14;;;;;;;10.90;8.80;;;23.50;90.90;;;;;;5061574;28;20635;-71
2021/05/12 11:09:07;;;;;;;9.73;9.03;;;23.40;91.00;;;;;;5068118;28;20684;-70
2021/05/12 11:11:37;;;;;;;7.93;7.33;;;23.50;90.80;;;;;;5073513;28;20429;-69
2021/05/12 11:14:35;;;;;;;8.60;7.90;;;23.80;90.50;;;;;;5076860;28;20443;-70
2021/05/12 11:17:08;;;;;;;8.90;8.40;;;23.90;89.00;;;;;;5073663;28;20421;-69
2021/05/12 11:25:41;;;;;;;9.17;8.37;;;24.20;89.80;;;;;;5071841;28;20447;-68
2021/05/12 11:33:36;;;;;;;8.70;8.00;;;23.90;90.80;;;;;;5073937;28;20694;-69
2021/05/12 11:38:35;;;;;;;10.20;9.50;;;24.10;89.90;;;;;;5074872;28;21662;-70
2021/05/12 11:41:18;;;;;;;9.77;9.07;;;23.90;90.10;;;;;;5075951;28;20430;-70
2021/05/12 11:44:00;;;;;;;9.00;8.40;;;23.90;90.70;;;;;;5075566;28;20407;-71
2021/05/12 11:46:41;;;;;;;9.57;8.93;;;24.10;90.50;;;;;;5077080;28;20525;-68
2021/05/12 11:49:12;;;;;;;10.03;9.33;;;24.00;90.00;;;;;;5072787;28;20416;-69
2021/05/12 11:51:45;;;;;;;9.40;8.77;;;23.90;90.40;;;;;;5070767;28;20415;-71
2021/05/12 11:54:27;;;;;;;8.80;8.17;;;24.10;90.40;;;;;;5075198;28;20738;-70
2021/05/12 11:56:56;;;;;;;10.67;9.87;;;23.80;90.80;;;;;;5075944;28;20439;-68
2021/05/12 11:59:26;;;;;;;9.77;8.90;;;23.50;91.60;;;;;;5073758;28;20508;-69
2021/05/12 12:02:11;;;;;;;9.20;8.57;;;23.70;91.60;;;;;;5075997;28;20689;-69
2021/05/12 12:04:51;;;;;;;8.50;7.87;;;23.70;91.50;;;;;;5073553;28;20673;-68
2021/05/12 12:07:18;;;;;;;9.53;8.80;;;23.90;91.40;;;;;;5076466;28;20453;-69
2021/05/12 12:09:45;;;;;;;8.77;8.07;;;23.90;91.30;;;;;;5076190;28;20815;-69
2021/05/12 12:12:12;;;;;;;8.67;8.07;;;23.90;90.70;;;;;;5104103;28;20498;-71
2021/05/12 12:14:40;;;;;;;7.73;7.23;;;23.90;90.90;;;;;;5072800;28;20772;-70
2021/05/12 12:17:11;;;;;;;9.33;8.57;;;23.90;91.20;;;;;;5072327;28;20440;-67
2021/05/12 12:19:39;;;;;;;9.00;8.20;;;24.10;91.20;;;;;;5075488;28;20478;-70
2021/05/12 12:22:06;;;;;;;10.10;9.20;;;24.20;90.90;;;;;;5069359;28;20439;-71
2021/05/12 12:24:34;;;;;;;8.80;8.10;;;24.40;90.30;;;;;;5073318;28;20422;-68
2021/05/12 12:27:03;;;;;;;10.03;9.33;;;24.30;89.80;;;;;;5073951;28;20486;-70
2021/05/12 12:29:34;;;;;;;9.43;8.60;;;24.10;90.50;;;;;;5073811;28;20585;-67
2021/05/12 12:32:05;;;;;;;9.50;8.80;;;24.30;90.80;;;;;;5073519;28;20409;-69
2021/05/12 12:34:37;;;;;;;8.63;8.03;;;24.20;90.40;;;;;;5074566;28;20511;-68
2021/05/12 12:37:09;;;;;;;11.77;10.83;;;24.10;90.80;;;;;;5070699;28;20446;-69
2021/05/12 12:39:39;;;;;;;9.13;8.50;;;24.20;90.80;;;;;;5074394;28;20713;-69
2021/05/12 12:42:11;;;;;;;9.30;8.60;;;24.40;90.80;;;;;;5074545;28;20432;-70
2021/05/12 12:44:45;;;;;;;9.90;9.10;;;24.60;90.60;;;;;;5073224;28;20482;-70
2021/05/12 12:47:16;;;;;;;9.37;8.77;;;24.70;90.30;;;;;;5072014;28;20429;-70
2021/05/12 12:50:07;;;;;;;8.93;8.43;;;24.80;90.30;;;;;;5075544;28;20450;-70
2021/05/12 12:52:41;;;;;;;10.03;9.33;;;24.90;89.80;;;;;;5070579;28;20468;-69
2021/05/12 12:55:16;;;;;;;10.20;9.50;;;25.00;88.70;;;;;;5074102;28;20419;-68
2021/05/12 12:57:45;;;;;;;11.13;10.33;;;25.00;89.40;;;;;;5074471;28;20485;-69
2021/05/12 13:00:22;;;;;;;10.60;9.80;;;24.60;90.10;;;;;;5073092;28;20449;-69
2021/05/12 13:03:05;;;;;;;9.07;8.47;;;24.30;90.60;;;;;;5074626;28;20603;-69
2021/05/12 13:05:40;;;;;;;9.53;8.83;;;24.20;91.30;;;;;;5073405;28;20490;-70
2021/05/12 13:08:16;;;;;;;9.47;8.60;;;24.50;91.10;;;;;;5074147;28;20467;-71
2021/05/12 13:11:03;;;;;;;9.87;9.17;;;24.70;90.70;;;;;;5073617;28;20481;-71
2021/05/12 13:13:49;;;;;;;9.50;8.80;;;24.90;90.30;;;;;;5056858;28;20456;-69
2021/05/12 13:16:23;;;;;;;11.00;10.20;;;25.10;90.00;;;;;;5057959;28;20465;-70
2021/05/12 13:19:00;;;;;;;10.23;9.43;;;25.00;89.30;;;;;;5072528;28;20442;-70
2021/05/12 13:21:33;;;;;;;9.97;9.30;;;24.70;90.40;;;;;;5076674;28;20415;-71
2021/05/12 13:24:08;;;;;;;9.80;8.80;;;24.70;90.60;;;;;;5077245;28;20761;-70